createdAt,value
2023-05-16T00:01:42.096Z,15.33
2023-05-16T00:04:48.517Z,15.24
2023-05-16T00:07:54.246Z,15.35
2023-05-16T00:11:00.402Z,15.35
2023-05-16T00:14:06.011Z,15.11
2023-05-16T00:17:12.491Z,15.23
2023-05-16T00:20:19.216Z,15.16
2023-05-16T00:23:25.199Z,15.16
2023-05-16T00:26:30.416Z,15.14
2023-05-16T00:29:36.290Z,15.17
2023-05-16T00:32:41.620Z,15.19
2023-05-16T00:35:46.932Z,15.18
2023-05-16T00:38:52.266Z,15.09
2023-05-16T00:41:59.787Z,15.02
2023-05-16T00:45:06.584Z,15.01
2023-05-16T00:48:14.506Z,15.19
2023-05-16T00:51:20.465Z,15.19
2023-05-16T00:54:29.604Z,15.11
2023-05-16T00:57:36.220Z,15.14
2023-05-16T01:00:42.105Z,15.17
2023-05-16T01:03:48.656Z,15.14
2023-05-16T01:06:55.709Z,15.19
2023-05-16T01:10:02.223Z,15.15
2023-05-16T01:13:23.396Z,15.03
2023-05-16T01:16:38.971Z,15.01
2023-05-16T01:19:52.012Z,15.08
2023-05-16T01:23:25.392Z,15.01
2023-05-16T01:26:32.944Z,14.91
2023-05-16T01:29:39.486Z,15.02
2023-05-16T01:32:45.429Z,15.02
2023-05-16T01:36:14.895Z,15.08
2023-05-16T01:39:23.048Z,15.00
2023-05-16T01:42:34.243Z,15.11
2023-05-16T01:45:47.978Z,15.05
2023-05-16T01:49:08.064Z,15.02
2023-05-16T01:52:18.938Z,15.07
2023-05-16T01:55:35.080Z,15.15
2023-05-16T01:58:41.958Z,15.15
2023-05-16T02:01:47.620Z,15.24
2023-05-16T02:04:53.481Z,15.28
2023-05-16T02:08:00.601Z,15.30
2023-05-16T02:11:06.487Z,15.32
2023-05-16T02:14:12.524Z,15.27
2023-05-16T02:17:18.718Z,15.17
2023-05-16T02:20:24.779Z,15.13
2023-05-16T02:23:30.154Z,15.08
2023-05-16T02:26:35.944Z,15.11
2023-05-16T02:29:41.182Z,15.07
2023-05-16T02:32:46.877Z,14.95
2023-05-16T02:35:52.498Z,15.03
2023-05-16T02:38:58.391Z,15.00
2023-05-16T02:42:05.026Z,15.02
2023-05-16T02:45:11.564Z,15.05
2023-05-16T02:48:17.315Z,15.07
2023-05-16T02:51:26.374Z,15.05
2023-05-16T02:54:32.262Z,15.05
2023-05-16T02:57:38.461Z,15.02
2023-05-16T03:00:44.425Z,15.05
2023-05-16T03:03:50.451Z,15.11
2023-05-16T03:06:56.607Z,15.13
2023-05-16T03:10:02.395Z,15.15
2023-05-16T03:13:08.395Z,15.22
2023-05-16T03:16:15.082Z,15.27
2023-05-16T03:19:20.953Z,15.26
2023-05-16T03:22:26.613Z,15.30
2023-05-16T03:25:33.096Z,15.30
2023-05-16T03:28:39.089Z,15.24
2023-05-16T03:31:44.785Z,15.25
2023-05-16T03:34:50.202Z,15.25
2023-05-16T03:37:56.081Z,15.30
2023-05-16T03:41:02.560Z,15.26
2023-05-16T03:44:08.531Z,15.26
2023-05-16T03:47:14.654Z,15.13
2023-05-16T03:50:20.497Z,15.11
2023-05-16T03:53:28.082Z,15.03
2023-05-16T03:56:33.863Z,14.95
2023-05-16T03:59:40.167Z,14.87
2023-05-16T04:02:46.821Z,14.92
2023-05-16T04:05:53.037Z,14.91
2023-05-16T04:08:58.647Z,14.86
2023-05-16T04:12:04.527Z,14.82
2023-05-16T04:15:10.677Z,14.85
2023-05-16T04:18:16.028Z,14.81
2023-05-16T04:21:21.662Z,14.65
2023-05-16T04:24:29.228Z,14.47
2023-05-16T04:27:34.705Z,14.42
2023-05-16T04:30:40.909Z,14.21
2023-05-16T04:33:47.209Z,14.19
2023-05-16T04:36:53.012Z,14.01
2023-05-16T04:39:59.324Z,13.89
2023-05-16T04:43:05.465Z,13.91
2023-05-16T04:46:11.108Z,13.87
2023-05-16T04:49:16.497Z,13.93
2023-05-16T04:52:21.810Z,13.97
2023-05-16T04:55:27.765Z,14.02
2023-05-16T04:58:33.703Z,13.99
2023-05-16T05:01:39.915Z,14.16
2023-05-16T05:04:45.841Z,14.12
2023-05-16T05:07:51.380Z,14.07
2023-05-16T05:10:57.226Z,14.01
2023-05-16T05:14:03.021Z,14.15
2023-05-16T05:17:08.604Z,14.14
2023-05-16T05:20:14.045Z,14.10
2023-05-16T05:23:21.030Z,14.00
2023-05-16T05:26:26.608Z,14.07
2023-05-16T05:29:32.315Z,14.10
2023-05-16T05:32:38.370Z,13.91
2023-05-16T05:35:43.951Z,13.91
2023-05-16T05:38:49.739Z,13.79
2023-05-16T05:41:55.229Z,13.95
2023-05-16T05:45:00.202Z,13.90
2023-05-16T05:48:06.064Z,13.80
2023-05-16T05:51:14.428Z,13.95
2023-05-16T05:54:20.430Z,13.86
2023-05-16T05:57:25.688Z,13.89
2023-05-16T06:00:31.582Z,14.03
2023-05-16T06:03:37.121Z,14.03
2023-05-16T06:06:42.630Z,13.78
2023-05-16T06:09:48.012Z,13.88
2023-05-16T06:12:53.737Z,13.82
2023-05-16T06:15:59.217Z,13.78
2023-05-16T06:19:04.926Z,13.90
2023-05-16T06:22:10.450Z,13.87
2023-05-16T06:25:16.272Z,14.02
2023-05-16T06:28:22.171Z,14.06
2023-05-16T06:31:27.954Z,14.07
2023-05-16T06:34:33.927Z,14.09
2023-05-16T06:37:42.573Z,14.15
2023-05-16T06:40:49.475Z,13.78
2023-05-16T06:43:55.164Z,13.94
2023-05-16T06:47:00.990Z,13.95
2023-05-16T06:50:07.645Z,13.94
2023-05-16T06:53:13.158Z,14.02
2023-05-16T06:56:18.830Z,14.02
2023-05-16T06:59:25.179Z,14.20
2023-05-16T07:02:32.364Z,14.33
2023-05-16T07:05:38.355Z,14.26
2023-05-16T07:08:43.713Z,14.36
2023-05-16T07:11:49.637Z,14.49
2023-05-16T07:14:55.193Z,14.62
2023-05-16T07:18:01.276Z,14.64
2023-05-16T07:21:07.392Z,14.62
2023-05-16T07:24:12.936Z,14.65
2023-05-16T07:27:22.741Z,14.50
2023-05-16T07:30:29.838Z,14.51
2023-05-16T07:33:35.324Z,14.62
2023-05-16T07:36:41.468Z,14.59
2023-05-16T07:39:47.071Z,14.56
2023-05-16T07:42:52.660Z,14.40
2023-05-16T07:45:58.565Z,14.47
2023-05-16T07:49:05.443Z,14.48
2023-05-16T07:52:11.219Z,14.38
2023-05-16T07:55:17.297Z,14.30
2023-05-16T07:58:22.965Z,14.33
2023-05-16T08:01:28.323Z,14.35
2023-05-16T08:04:33.972Z,14.36
2023-05-16T08:07:39.500Z,14.34
2023-05-16T08:10:45.772Z,14.39
2023-05-16T08:13:51.536Z,14.37
2023-05-16T08:16:58.700Z,14.30
2023-05-16T08:20:04.675Z,14.44
2023-05-16T08:23:10.388Z,14.52
2023-05-16T08:26:18.187Z,14.39
2023-05-16T08:29:24.500Z,14.46
2023-05-16T08:32:30.090Z,14.42
2023-05-16T08:35:35.828Z,14.40
2023-05-16T08:38:41.412Z,14.43
2023-05-16T08:41:47.009Z,14.49
2023-05-16T08:44:52.533Z,14.40
2023-05-16T08:48:01.128Z,14.43
2023-05-16T08:51:08.273Z,14.45
2023-05-16T08:54:15.897Z,14.40
2023-05-16T08:57:22.192Z,14.57
2023-05-16T09:00:28.743Z,14.64
2023-05-16T09:03:36.482Z,14.64
2023-05-16T09:06:41.990Z,14.41
2023-05-16T09:09:47.587Z,14.48
2023-05-16T09:12:53.317Z,14.48
2023-05-16T09:16:17.255Z,14.61
2023-05-16T09:19:23.755Z,14.78
2023-05-16T09:22:29.975Z,14.83
2023-05-16T09:25:35.700Z,14.90
2023-05-16T09:28:41.705Z,15.09
2023-05-16T09:31:47.279Z,14.70
2023-05-16T09:34:54.832Z,14.76
2023-05-16T09:38:00.416Z,14.61
2023-05-16T09:41:06.178Z,14.58
2023-05-16T09:44:12.616Z,14.55
2023-05-16T09:47:19.456Z,14.70
2023-05-16T09:50:25.423Z,14.79
2023-05-16T09:53:32.820Z,14.99
2023-05-16T09:56:51.812Z,15.11
2023-05-16T10:00:01.737Z,15.30
2023-05-16T10:03:09.006Z,15.42
2023-05-16T10:06:16.842Z,15.43
2023-05-16T10:09:23.549Z,15.62
2023-05-16T10:12:33.910Z,15.87
2023-05-16T10:15:40.042Z,16.10
2023-05-16T10:18:45.878Z,16.06
2023-05-16T10:21:59.616Z,15.93
2023-05-16T10:25:14.258Z,16.13
2023-05-16T10:28:20.126Z,16.13
2023-05-16T10:31:26.079Z,16.30
2023-05-16T10:34:31.818Z,16.12
2023-05-16T10:37:38.330Z,16.22
2023-05-16T10:40:45.600Z,16.07
2023-05-16T10:44:00.415Z,16.03
2023-05-16T10:47:06.348Z,16.09
2023-05-16T10:50:12.027Z,16.15
2023-05-16T10:53:29.239Z,16.10
2023-05-16T10:56:35.658Z,16.05
2023-05-16T10:59:46.828Z,16.02
2023-05-16T11:02:52.396Z,16.04
2023-05-16T11:06:01.902Z,16.12
2023-05-16T11:09:16.274Z,16.12
2023-05-16T11:12:21.790Z,16.16
2023-05-16T11:15:31.789Z,16.43
2023-05-16T11:18:51.911Z,16.50
2023-05-16T11:22:18.100Z,16.50
2023-05-16T11:25:39.905Z,16.46
2023-05-16T11:28:50.721Z,16.28
2023-05-16T11:31:56.894Z,16.22
2023-05-16T11:35:04.271Z,16.21
2023-05-16T11:38:19.301Z,16.34
2023-05-16T11:41:24.575Z,16.26
2023-05-16T11:44:30.071Z,16.33
2023-05-16T11:47:44.743Z,16.20
2023-05-16T11:50:50.515Z,16.36
2023-05-16T11:53:55.759Z,16.27
2023-05-16T11:57:02.427Z,16.33
2023-05-16T12:00:25.434Z,16.31
2023-05-16T12:03:34.048Z,16.54
2023-05-16T12:06:40.806Z,16.36
2023-05-16T12:09:54.283Z,16.44
2023-05-16T12:13:16.796Z,16.48
2023-05-16T12:16:35.970Z,16.46
2023-05-16T12:19:46.965Z,16.54
2023-05-16T12:22:52.804Z,16.54
2023-05-16T12:25:58.526Z,16.55
2023-05-16T12:29:05.980Z,16.63
2023-05-16T12:32:17.649Z,16.67
2023-05-16T12:35:23.522Z,16.67
2023-05-16T12:38:29.539Z,16.78
2023-05-16T12:41:42.620Z,17.00
2023-05-16T12:44:48.249Z,17.11
2023-05-16T12:47:54.011Z,17.21
2023-05-16T12:51:14.240Z,17.28
2023-05-16T12:54:21.207Z,17.30
2023-05-16T12:57:27.123Z,17.29
2023-05-16T13:00:32.749Z,17.31
2023-05-16T13:03:38.495Z,17.40
2023-05-16T13:06:56.540Z,17.48
2023-05-16T13:10:04.860Z,17.60
2023-05-16T13:13:10.268Z,17.72
2023-05-16T13:16:16.801Z,17.75
2023-05-16T13:19:24.595Z,17.79
2023-05-16T13:22:30.215Z,17.37
2023-05-16T13:25:37.509Z,17.54
2023-05-16T13:28:43.113Z,17.74
2023-05-16T13:31:49.025Z,17.75
2023-05-16T13:34:54.895Z,17.75
2023-05-16T13:38:01.048Z,17.74
2023-05-16T13:41:06.883Z,17.76
2023-05-16T13:44:13.367Z,17.69
2023-05-16T13:47:19.017Z,17.74
2023-05-16T13:50:24.401Z,17.76
2023-05-16T13:53:29.906Z,17.76
2023-05-16T13:56:35.348Z,17.79
2023-05-16T14:02:49.915Z,17.87
2023-05-16T14:05:55.966Z,17.91
2023-05-16T14:09:02.129Z,18.04
2023-05-16T14:12:08.121Z,18.06
2023-05-16T14:15:13.722Z,18.13
2023-05-16T14:18:19.205Z,18.08
2023-05-16T14:21:25.254Z,17.98
2023-05-16T14:24:31.289Z,17.92
2023-05-16T14:27:36.868Z,17.87
2023-05-16T14:30:42.685Z,17.87
2023-05-16T14:33:48.558Z,17.90
2023-05-16T14:36:54.116Z,17.90
2023-05-16T14:40:01.216Z,17.88
2023-05-16T14:43:10.098Z,17.87
2023-05-16T14:46:15.725Z,17.96
2023-05-16T14:49:21.592Z,17.90
2023-05-16T14:52:27.237Z,17.92
2023-05-16T14:55:33.444Z,18.02
2023-05-16T14:58:38.725Z,18.04
2023-05-16T15:01:44.327Z,18.10
2023-05-16T15:04:50.532Z,18.14
2023-05-16T15:07:56.160Z,18.18
2023-05-16T15:11:02.158Z,18.26
2023-05-16T15:14:07.785Z,18.26
2023-05-16T15:17:13.455Z,18.15
2023-05-16T15:20:21.111Z,18.14
2023-05-16T15:23:28.340Z,18.16
2023-05-16T15:26:33.997Z,18.11
2023-05-16T15:29:39.978Z,18.18
2023-05-16T15:32:45.853Z,18.25
2023-05-16T15:35:52.170Z,18.17
2023-05-16T15:38:58.203Z,18.23
2023-05-16T15:42:11.137Z,18.27
2023-05-16T15:45:17.587Z,18.32
2023-05-16T15:48:23.484Z,18.18
2023-05-16T15:51:29.490Z,18.19
2023-05-16T15:54:36.792Z,18.16
2023-05-16T15:57:44.153Z,18.06
2023-05-16T16:00:50.118Z,18.04
2023-05-16T16:03:56.030Z,17.94
2023-05-16T16:07:02.063Z,17.86
2023-05-16T16:10:09.328Z,17.77
2023-05-16T16:13:15.569Z,17.68
2023-05-16T16:16:21.036Z,17.62
2023-05-16T16:19:27.004Z,17.57
2023-05-16T16:22:32.223Z,17.51
2023-05-16T16:25:37.664Z,17.38
2023-05-16T16:28:43.413Z,17.32
2023-05-16T16:31:48.758Z,17.20
2023-05-16T16:34:54.872Z,17.16
2023-05-16T16:38:06.690Z,17.14
2023-05-16T16:41:14.878Z,17.06
2023-05-16T16:44:21.197Z,16.89
2023-05-16T16:47:26.981Z,16.84
2023-05-16T16:50:34.282Z,16.80
2023-05-16T16:53:41.562Z,16.69
2023-05-16T16:56:48.010Z,16.64
2023-05-16T16:59:53.516Z,16.58
2023-05-16T17:02:59.212Z,16.56
2023-05-16T17:06:05.269Z,16.47
2023-05-16T17:09:14.405Z,16.43
2023-05-16T17:12:20.767Z,16.42
2023-05-16T17:15:26.692Z,16.42
2023-05-16T17:18:34.757Z,16.40
2023-05-16T17:21:40.975Z,16.35
2023-05-16T17:24:46.559Z,16.29
2023-05-16T17:27:52.245Z,16.26
2023-05-16T17:30:58.016Z,16.14
2023-05-16T17:34:03.572Z,16.17
2023-05-16T17:37:10.844Z,16.07
2023-05-16T17:40:18.142Z,16.02
2023-05-16T17:43:23.771Z,16.02
2023-05-16T17:46:29.246Z,16.04
2023-05-16T17:49:35.638Z,15.93
2023-05-16T17:52:41.343Z,15.92
2023-05-16T17:55:47.096Z,15.93
2023-05-16T17:58:53.721Z,15.89
2023-05-16T18:01:59.386Z,15.78
2023-05-16T18:05:05.157Z,15.79
2023-05-16T18:08:11.166Z,15.67
2023-05-16T18:11:16.737Z,15.64
2023-05-16T18:14:22.270Z,15.64
2023-05-16T18:17:28.074Z,15.55
2023-05-16T18:20:34.783Z,15.48
2023-05-16T18:23:40.881Z,15.20
2023-05-16T18:26:48.660Z,15.05
2023-05-16T18:29:55.328Z,14.91
2023-05-16T18:33:01.778Z,14.83
2023-05-16T18:36:08.572Z,14.60
2023-05-16T18:39:14.035Z,14.52
2023-05-16T18:42:19.555Z,14.46
2023-05-16T18:45:24.945Z,14.45
2023-05-16T18:48:29.891Z,14.52
2023-05-16T18:51:35.130Z,14.21
2023-05-16T18:54:40.507Z,14.33
2023-05-16T18:57:46.317Z,14.09
2023-05-16T19:00:52.132Z,14.00
2023-05-16T19:03:57.990Z,14.13
2023-05-16T19:07:04.752Z,14.23
2023-05-16T19:10:12.082Z,14.12
2023-05-16T19:13:18.252Z,14.23
2023-05-16T19:16:23.625Z,14.18
2023-05-16T19:19:30.223Z,14.18
2023-05-16T19:22:36.387Z,14.12
2023-05-16T19:25:47.435Z,14.17
2023-05-16T19:28:52.829Z,14.16
2023-05-16T19:31:58.281Z,14.12
2023-05-16T19:35:05.740Z,14.09
2023-05-16T19:38:11.213Z,14.17
2023-05-16T19:41:17.210Z,14.12
2023-05-16T19:44:22.744Z,14.16
2023-05-16T19:47:28.662Z,14.09
2023-05-16T19:50:34.697Z,14.02
2023-05-16T19:53:41.372Z,14.07
2023-05-16T19:56:47.163Z,14.05
2023-05-16T19:59:52.791Z,14.01
2023-05-16T20:02:58.514Z,14.10
2023-05-16T20:06:05.182Z,13.97
2023-05-16T20:09:11.549Z,13.92
2023-05-16T20:12:17.407Z,13.66
2023-05-16T20:15:23.249Z,13.82
2023-05-16T20:18:28.960Z,13.73
2023-05-16T20:21:34.575Z,13.91
2023-05-16T20:24:40.549Z,13.97
2023-05-16T20:27:46.000Z,13.83
2023-05-16T20:30:51.721Z,13.55
2023-05-16T20:33:57.212Z,13.47
2023-05-16T20:37:03.022Z,13.34
2023-05-16T20:40:10.176Z,13.28
2023-05-16T20:43:16.058Z,13.20
2023-05-16T20:46:22.138Z,13.33
2023-05-16T20:49:28.309Z,13.44
2023-05-16T20:52:34.008Z,13.56
2023-05-16T20:55:39.904Z,13.66
2023-05-16T20:58:45.612Z,13.53
2023-05-16T21:01:51.986Z,13.34
2023-05-16T21:04:59.314Z,13.45
2023-05-16T21:08:07.811Z,13.63
2023-05-16T21:11:13.170Z,13.73
2023-05-16T21:14:18.648Z,13.66
2023-05-16T21:17:24.660Z,13.53
2023-05-16T21:20:30.489Z,13.67
2023-05-16T21:23:36.306Z,13.72
2023-05-16T21:26:41.808Z,13.72
2023-05-16T21:29:47.568Z,13.76
2023-05-16T21:32:53.276Z,13.74
2023-05-16T21:36:00.618Z,13.76
2023-05-16T21:39:06.256Z,13.76
2023-05-16T21:42:11.509Z,13.86
2023-05-16T21:45:17.299Z,13.83
2023-05-16T21:48:23.113Z,13.90
2023-05-16T21:51:29.160Z,13.81
2023-05-16T21:54:35.084Z,13.83
2023-05-16T21:57:40.339Z,13.80
2023-05-16T22:00:46.245Z,13.72
2023-05-16T22:03:54.635Z,13.79
2023-05-16T22:06:59.871Z,13.76
2023-05-16T22:10:06.131Z,13.66
2023-05-16T22:13:11.739Z,13.66
2023-05-16T22:16:16.935Z,13.75
2023-05-16T22:19:22.769Z,13.76
2023-05-16T22:22:28.821Z,13.50
2023-05-16T22:25:34.391Z,13.54
2023-05-16T22:28:39.753Z,13.50
2023-05-16T22:31:45.507Z,13.44
2023-05-16T22:34:51.034Z,13.34
2023-05-16T22:37:56.555Z,13.37
2023-05-16T22:41:01.769Z,13.31
2023-05-16T22:44:07.155Z,13.38
2023-05-16T22:47:13.184Z,13.32
2023-05-16T22:50:20.695Z,13.50
2023-05-16T22:53:27.200Z,13.27
2023-05-16T22:56:34.209Z,13.29
2023-05-16T22:59:40.235Z,13.15
2023-05-16T23:02:47.350Z,13.16
2023-05-16T23:05:54.608Z,13.10
2023-05-16T23:09:02.910Z,13.25
2023-05-16T23:12:10.308Z,13.35
2023-05-16T23:15:17.127Z,13.27
2023-05-16T23:18:24.528Z,13.30
2023-05-16T23:21:32.034Z,13.34
2023-05-16T23:24:39.346Z,13.39
2023-05-16T23:27:45.494Z,13.27
2023-05-16T23:30:52.297Z,13.30
2023-05-16T23:33:59.293Z,13.24
2023-05-16T23:37:06.884Z,13.29
2023-05-16T23:40:13.399Z,13.31
2023-05-16T23:43:22.123Z,13.38
2023-05-16T23:46:28.973Z,13.29
2023-05-16T23:49:37.878Z,13.41
2023-05-16T23:52:45.860Z,13.24
2023-05-16T23:55:53.550Z,13.22
2023-05-16T23:59:01.268Z,13.24
